createdAt,value
2022-11-16T00:01:09.790Z,94232.8
2022-11-16T00:02:11.722Z,94231.2
2022-11-16T00:03:14.065Z,94225.5
2022-11-16T00:04:15.992Z,94227.3
2022-11-16T00:05:17.916Z,94222.3
2022-11-16T00:06:19.846Z,94216.4
2022-11-16T00:07:22.708Z,94225.3
2022-11-16T00:08:25.344Z,94223.1
2022-11-16T00:09:27.811Z,94217.5
2022-11-16T00:10:30.022Z,94224
2022-11-16T00:11:31.951Z,94219.8
2022-11-16T00:12:34.201Z,94220.7
2022-11-16T00:13:36.388Z,94220.5
2022-11-16T00:14:38.621Z,94216.6
2022-11-16T00:15:40.813Z,94218.5
2022-11-16T00:16:43.057Z,94222.2
2022-11-16T00:17:45.536Z,94221.9
2022-11-16T00:18:48.020Z,94220
2022-11-16T00:19:50.479Z,94222.1
2022-11-16T00:20:52.965Z,94222.9
2022-11-16T00:21:55.470Z,94228.5
2022-11-16T00:22:58.022Z,94230.8
2022-11-16T00:24:00.514Z,94230.1
2022-11-16T00:25:02.693Z,94228.6
2022-11-16T00:26:05.160Z,94231.4
2022-11-16T00:27:07.639Z,94224.8
2022-11-16T00:28:09.857Z,94224.7
2022-11-16T00:29:12.409Z,94221.8
2022-11-16T00:30:14.617Z,94224.3
2022-11-16T00:31:16.838Z,94218
2022-11-16T00:32:18.782Z,94221.5
2022-11-16T00:33:20.691Z,94228.2
2022-11-16T00:34:23.166Z,94225.1
2022-11-16T00:35:25.648Z,94227.6
2022-11-16T00:36:27.842Z,94226.7
2022-11-16T00:37:30.111Z,94229.5
2022-11-16T00:38:34.611Z,94235.3
2022-11-16T00:39:37.071Z,94241.4
2022-11-16T00:40:39.595Z,94237.1
2022-11-16T00:41:42.113Z,94239.3
2022-11-16T00:42:44.588Z,94239.7
2022-11-16T00:43:47.085Z,94239.2
2022-11-16T00:44:49.566Z,94233.7
2022-11-16T00:45:52.037Z,94231.6
2022-11-16T00:46:54.516Z,94229.6
2022-11-16T00:49:01.737Z,94226.3
2022-11-16T00:50:03.669Z,94219.8
2022-11-16T00:51:05.868Z,94225.9
2022-11-16T00:52:08.058Z,94223.7
2022-11-16T00:53:10.545Z,94220.9
2022-11-16T00:54:12.783Z,94219.9
2022-11-16T00:55:15.244Z,94219.4
2022-11-16T00:56:17.176Z,94218.1
2022-11-16T00:57:19.639Z,94222.8
2022-11-16T00:58:21.835Z,94222
2022-11-16T00:59:24.046Z,94219.4
2022-11-16T01:00:26.521Z,94223.1
2022-11-16T01:01:29.329Z,94221.2
2022-11-16T01:02:31.633Z,94216.6
2022-11-16T01:03:33.826Z,94218.1
2022-11-16T01:04:36.057Z,94218.6
2022-11-16T01:05:38.527Z,94218.8
2022-11-16T01:06:40.731Z,94217.3
2022-11-16T01:07:43.197Z,94207.4
2022-11-16T01:08:45.411Z,94206
2022-11-16T01:09:47.513Z,94202.5
2022-11-16T01:10:50.115Z,94203.3
2022-11-16T01:11:52.594Z,94199.9
2022-11-16T01:12:54.778Z,94199.5
2022-11-16T01:13:56.669Z,94200.4
2022-11-16T01:14:58.872Z,94200
2022-11-16T01:16:00.789Z,94198.7
2022-11-16T01:17:02.985Z,94200.1
2022-11-16T01:18:05.470Z,94197.3
2022-11-16T01:19:07.789Z,94195.9
2022-11-16T01:20:10.300Z,94189.7
2022-11-16T01:21:12.780Z,94188.9
2022-11-16T01:22:14.671Z,94183.9
2022-11-16T01:23:16.879Z,94184
2022-11-16T01:24:19.093Z,94181.1
2022-11-16T01:25:21.586Z,94185.8
2022-11-16T01:26:24.051Z,94178.7
2022-11-16T01:27:25.985Z,94182.5
2022-11-16T01:28:27.981Z,94179.1
2022-11-16T01:29:30.182Z,94183.5
2022-11-16T01:30:32.406Z,94185.9
2022-11-16T01:31:34.886Z,94183
2022-11-16T01:32:37.351Z,94185.2
2022-11-16T01:33:39.553Z,94180.4
2022-11-16T01:34:41.729Z,94179.6
2022-11-16T01:35:44.260Z,94174.7
2022-11-16T01:36:46.187Z,94175.2
2022-11-16T01:37:48.131Z,94175.5
2022-11-16T01:38:50.356Z,94181.1
2022-11-16T01:39:52.558Z,94181.3
2022-11-16T01:40:54.497Z,94180.5
2022-11-16T01:41:56.959Z,94186.3
2022-11-16T01:42:59.154Z,94188.1
2022-11-16T01:44:01.348Z,94187
2022-11-16T01:45:03.834Z,94189
2022-11-16T01:46:06.322Z,94186.9
2022-11-16T01:47:08.822Z,94186
2022-11-16T01:48:11.169Z,94186.9
2022-11-16T01:49:13.505Z,94183.7
2022-11-16T01:50:15.145Z,94184.5
2022-11-16T01:51:17.688Z,94183.1
2022-11-16T01:52:19.595Z,94187.2
2022-11-16T01:53:22.082Z,94190
2022-11-16T01:54:23.995Z,94190.7
2022-11-16T01:55:25.954Z,94193.5
2022-11-16T01:56:27.895Z,94188.9
2022-11-16T01:57:30.103Z,94184.7
2022-11-16T01:58:33.846Z,94185
2022-11-16T01:59:37.005Z,94181.4
2022-11-16T02:00:39.200Z,94189.4
2022-11-16T02:01:42.122Z,94184.2
2022-11-16T02:02:44.406Z,94185.6
2022-11-16T02:03:46.888Z,94175.8
2022-11-16T02:04:49.362Z,94171.5
2022-11-16T02:05:51.593Z,94163.7
2022-11-16T02:06:54.114Z,94159.2
2022-11-16T02:07:56.413Z,94160.3
2022-11-16T02:08:58.879Z,94155.7
2022-11-16T02:10:01.075Z,94155.4
2022-11-16T02:11:03.565Z,94161.4
2022-11-16T02:12:06.062Z,94163.3
2022-11-16T02:13:07.971Z,94167.4
2022-11-16T02:14:10.169Z,94170.2
2022-11-16T02:15:12.627Z,94170.2
2022-11-16T02:16:14.825Z,94167.7
2022-11-16T02:17:16.758Z,94167.5
2022-11-16T02:18:18.949Z,94177.7
2022-11-16T02:19:21.631Z,94179.3
2022-11-16T02:20:24.108Z,94177.8
2022-11-16T02:21:26.017Z,94183.2
2022-11-16T02:22:28.533Z,94177.4
2022-11-16T02:23:30.729Z,94179.1
2022-11-16T02:24:32.929Z,94172.7
2022-11-16T02:25:35.393Z,94166.4
2022-11-16T02:26:37.895Z,94167.9
2022-11-16T02:27:40.114Z,94168.7
2022-11-16T02:28:42.593Z,94164.5
2022-11-16T02:29:44.511Z,94166.4
2022-11-16T02:30:46.710Z,94163
2022-11-16T02:31:49.181Z,94166.5
2022-11-16T02:32:51.410Z,94165.3
2022-11-16T02:33:53.328Z,94165.6
2022-11-16T02:34:55.518Z,94165.5
2022-11-16T02:35:58.006Z,94170.7
2022-11-16T02:37:00.193Z,94170.7
2022-11-16T02:38:02.435Z,94167.8
2022-11-16T02:39:04.906Z,94168.9
2022-11-16T02:40:07.107Z,94163.9
2022-11-16T02:41:09.300Z,94160.9
2022-11-16T02:42:11.250Z,94156.9
2022-11-16T02:43:13.187Z,94152.1
2022-11-16T02:44:15.110Z,94154
2022-11-16T02:45:17.580Z,94149.7
2022-11-16T02:46:19.219Z,94153.1
2022-11-16T02:47:21.687Z,94153.2
2022-11-16T02:48:24.195Z,94153.2
2022-11-16T02:49:26.390Z,94160.3
2022-11-16T02:50:28.607Z,94158.5
2022-11-16T02:51:31.086Z,94162.6
2022-11-16T02:52:33.288Z,94167
2022-11-16T02:53:35.798Z,94169.2
2022-11-16T02:54:37.446Z,94171.9
2022-11-16T02:55:39.375Z,94170.6
2022-11-16T02:56:41.575Z,94174.5
2022-11-16T02:57:44.082Z,94178.5
2022-11-16T02:58:46.563Z,94179.1
2022-11-16T02:59:49.032Z,94183.5
2022-11-16T03:00:51.446Z,94179.4
2022-11-16T03:01:54.058Z,94175.9
2022-11-16T03:02:56.274Z,94173.3
2022-11-16T03:03:58.765Z,94169
2022-11-16T03:05:00.970Z,94165.6
2022-11-16T03:06:03.168Z,94164.3
2022-11-16T03:07:05.339Z,94163.9
2022-11-16T03:08:07.882Z,94164.7
2022-11-16T03:09:10.172Z,94164.7
2022-11-16T03:10:12.109Z,94168.9
2022-11-16T03:11:14.309Z,94172.3
2022-11-16T03:12:16.773Z,94170.9
2022-11-16T03:13:19.295Z,94174.1
2022-11-16T03:14:21.247Z,94172.1
2022-11-16T03:15:23.447Z,94173.6
2022-11-16T03:16:25.633Z,94174.3
2022-11-16T03:17:28.108Z,94170.2
2022-11-16T03:18:30.036Z,94172.4
2022-11-16T03:19:33.040Z,94166.6
2022-11-16T03:20:35.522Z,94166.8
2022-11-16T03:21:37.721Z,94167.9
2022-11-16T03:22:40.208Z,94177
2022-11-16T03:23:42.676Z,94181.9
2022-11-16T03:24:45.185Z,94186.5
2022-11-16T03:25:47.093Z,94186.8
2022-11-16T03:26:48.724Z,94191.2
2022-11-16T03:27:51.200Z,94189.7
2022-11-16T03:28:53.436Z,94193.6
2022-11-16T03:29:55.941Z,94191.4
2022-11-16T03:30:58.458Z,94187.4
2022-11-16T03:32:00.628Z,94191.8
2022-11-16T03:33:02.563Z,94195.1
2022-11-16T03:34:04.461Z,94194.2
2022-11-16T03:35:06.969Z,94200.8
2022-11-16T03:36:09.438Z,94198.3
2022-11-16T03:37:11.919Z,94203.8
2022-11-16T03:38:14.108Z,94204.6
2022-11-16T03:39:16.341Z,94204.7
2022-11-16T03:40:18.855Z,94206
2022-11-16T03:41:21.073Z,94206.1
2022-11-16T03:42:23.547Z,94209.5
2022-11-16T03:43:26.035Z,94210.3
2022-11-16T03:44:28.533Z,94214.1
2022-11-16T03:45:30.759Z,94215.5
2022-11-16T03:46:32.701Z,94215.9
2022-11-16T03:47:34.906Z,94216.8
2022-11-16T03:48:38.104Z,94215.6
2022-11-16T03:49:40.300Z,94223.2
2022-11-16T03:50:42.249Z,94225
2022-11-16T03:51:44.733Z,94228.3
2022-11-16T03:52:46.929Z,94220.8
2022-11-16T03:53:49.137Z,94227.4
2022-11-16T03:54:51.620Z,94231.7
2022-11-16T03:55:53.892Z,94231.7
2022-11-16T03:56:56.084Z,94224.5
2022-11-16T03:57:58.285Z,94226.6
2022-11-16T03:59:00.486Z,94230.2
2022-11-16T04:00:03.037Z,94233.6
2022-11-16T04:01:05.899Z,94228.4
2022-11-16T04:02:08.570Z,94229.2
2022-11-16T04:03:11.152Z,94233.8
2022-11-16T04:04:13.469Z,94231.2
2022-11-16T04:05:15.089Z,94232.5
2022-11-16T04:06:17.669Z,94233
2022-11-16T04:07:20.295Z,94236.5
2022-11-16T04:08:23.030Z,94237.3
2022-11-16T04:09:25.753Z,94241.7
2022-11-16T04:10:28.266Z,94241.9
2022-11-16T04:11:30.831Z,94241.8
2022-11-16T04:12:33.336Z,94242.4
2022-11-16T04:13:35.534Z,94241.8
2022-11-16T04:14:37.731Z,94245.1
2022-11-16T04:15:39.960Z,94251.7
2022-11-16T04:16:42.456Z,94250.4
2022-11-16T04:17:44.683Z,94249.7
2022-11-16T04:18:46.890Z,94251.7
2022-11-16T04:19:50.211Z,94253.2
2022-11-16T04:20:55.514Z,94254.6
2022-11-16T04:21:57.731Z,94259.1
2022-11-16T04:23:00.202Z,94260.1
2022-11-16T04:24:02.734Z,94258.3
2022-11-16T04:25:04.936Z,94260.1
2022-11-16T04:26:07.425Z,94263
2022-11-16T04:27:09.968Z,94266.4
2022-11-16T04:28:12.168Z,94264.8
2022-11-16T04:29:14.638Z,94267.9
2022-11-16T04:30:16.864Z,94268.8
2022-11-16T04:31:19.426Z,94269.2
2022-11-16T04:32:21.638Z,94272.4
2022-11-16T04:33:24.126Z,94277.9
2022-11-16T04:34:26.045Z,94277.3
2022-11-16T04:35:28.254Z,94274.7
2022-11-16T04:36:30.464Z,94281.1
2022-11-16T04:37:32.699Z,94277.6
2022-11-16T04:38:36.604Z,94277.9
2022-11-16T04:39:39.200Z,94277.7
2022-11-16T04:40:41.389Z,94277.3
2022-11-16T04:41:44.085Z,94276.9
2022-11-16T04:42:46.603Z,94277.8
2022-11-16T04:43:49.072Z,94280.9
2022-11-16T04:44:51.731Z,94277.6
2022-11-16T04:45:54.413Z,94281.3
2022-11-16T04:46:56.921Z,94278.1
2022-11-16T04:47:59.132Z,94277.4
2022-11-16T04:49:01.281Z,94279.4
2022-11-16T04:50:03.502Z,94280.7
2022-11-16T04:51:05.707Z,94282.9
2022-11-16T04:52:08.166Z,94282.4
2022-11-16T04:53:10.389Z,94282
2022-11-16T04:54:12.874Z,94290.6
2022-11-16T04:55:15.072Z,94287.8
2022-11-16T04:56:17.275Z,94285.9
2022-11-16T04:57:18.915Z,94286.8
2022-11-16T04:58:20.848Z,94289.1
2022-11-16T04:59:23.106Z,94286.4
2022-11-16T05:00:25.581Z,94291.1
2022-11-16T05:01:28.321Z,94289
2022-11-16T05:02:30.700Z,94286.7
2022-11-16T05:03:32.656Z,94293.5
2022-11-16T05:04:35.120Z,94292.2
2022-11-16T05:05:37.309Z,94291.3
2022-11-16T05:06:39.507Z,94288.5
2022-11-16T05:07:41.433Z,94293.5
2022-11-16T05:08:43.928Z,94294.7
2022-11-16T05:09:46.106Z,94291.9
2022-11-16T05:10:48.300Z,94292.3
2022-11-16T05:11:50.508Z,94296.1
2022-11-16T05:12:52.977Z,94293.1
2022-11-16T05:13:55.487Z,94293.1
2022-11-16T05:14:57.149Z,94294.7
2022-11-16T05:15:59.390Z,94295.8
2022-11-16T05:17:01.865Z,94293.5
2022-11-16T05:18:04.094Z,94295.1
2022-11-16T05:19:06.585Z,94297.1
2022-11-16T05:20:09.048Z,94293.6
2022-11-16T05:21:10.960Z,94298.1
2022-11-16T05:22:13.139Z,94295.2
2022-11-16T05:23:15.341Z,94295.9
2022-11-16T05:24:16.990Z,94295.7
2022-11-16T05:25:18.934Z,94297.6
2022-11-16T05:26:21.418Z,94299.3
2022-11-16T05:27:23.356Z,94300.2
2022-11-16T05:28:25.255Z,94297.7
2022-11-16T05:29:27.791Z,94302.8
2022-11-16T05:30:30.027Z,94297.1
2022-11-16T05:32:37.218Z,94295.7
2022-11-16T05:33:39.432Z,94301.3
2022-11-16T05:34:41.657Z,94301.7
2022-11-16T05:35:44.136Z,94304
2022-11-16T05:36:46.608Z,94300.3
2022-11-16T05:37:49.080Z,94301.7
2022-11-16T05:39:56.550Z,94295.7
2022-11-16T05:40:59.153Z,94297.1
2022-11-16T05:42:01.349Z,94299.1
2022-11-16T05:43:03.564Z,94298.4
2022-11-16T05:44:05.483Z,94298.8
2022-11-16T05:45:08.005Z,94298.8
2022-11-16T05:46:10.194Z,94302.7
2022-11-16T05:47:12.406Z,94300.7
2022-11-16T05:48:14.878Z,94301.1
2022-11-16T05:49:17.104Z,94301.3
2022-11-16T05:50:19.602Z,94303
2022-11-16T05:51:22.170Z,94300.6
2022-11-16T05:52:24.643Z,94300.2
2022-11-16T05:53:27.133Z,94303.5
2022-11-16T05:54:29.608Z,94297.7
2022-11-16T05:55:32.107Z,94301.3
2022-11-16T05:56:34.935Z,94297.9
2022-11-16T05:57:37.232Z,94304.2
2022-11-16T05:58:39.438Z,94300.6
2022-11-16T05:59:41.916Z,94302.4
2022-11-16T06:00:44.430Z,94301.6
2022-11-16T06:01:46.919Z,94305
2022-11-16T06:02:49.617Z,94295.2
2022-11-16T06:03:51.600Z,94298.8
2022-11-16T06:04:54.096Z,94298.7
2022-11-16T06:05:56.592Z,94300
2022-11-16T06:06:59.344Z,94299.3
2022-11-16T06:08:01.332Z,94298.9
2022-11-16T06:09:03.820Z,94296.9
2022-11-16T06:10:06.121Z,94298.8
2022-11-16T06:11:08.590Z,94296.2
2022-11-16T06:12:10.542Z,94301.6
2022-11-16T06:13:12.739Z,94297.7
2022-11-16T06:14:15.211Z,94298.2
2022-11-16T06:15:17.690Z,94301.1
2022-11-16T06:16:21.382Z,94299.4
2022-11-16T06:17:24.189Z,94296.8
2022-11-16T06:18:26.691Z,94296.9
2022-11-16T06:20:33.987Z,94299
2022-11-16T06:21:36.197Z,94299.6
2022-11-16T06:22:38.111Z,94303.3
2022-11-16T06:23:40.031Z,94298.5
2022-11-16T06:24:42.507Z,94299
2022-11-16T06:25:44.971Z,94297
2022-11-16T06:26:47.154Z,94301.7
2022-11-16T06:27:49.637Z,94302.2
2022-11-16T06:28:51.834Z,94302.2
2022-11-16T06:29:54.038Z,94300.8
2022-11-16T06:30:56.253Z,94298.7
2022-11-16T06:31:59.998Z,94303
2022-11-16T06:33:02.505Z,94302.2
2022-11-16T06:34:04.990Z,94299.6
2022-11-16T06:35:07.192Z,94301.9
2022-11-16T06:36:09.697Z,94304.8
2022-11-16T06:37:11.881Z,94301.1
2022-11-16T06:38:14.363Z,94299.8
2022-11-16T06:39:16.563Z,94303.1
2022-11-16T06:40:18.776Z,94302.7
2022-11-16T06:41:21.249Z,94297.4
2022-11-16T06:42:23.435Z,94297.9
2022-11-16T06:43:25.947Z,94296.5
2022-11-16T06:44:28.142Z,94297.9
2022-11-16T06:45:30.613Z,94296.9
2022-11-16T06:46:33.093Z,94298.5
2022-11-16T06:47:35.930Z,94294
2022-11-16T06:48:39.193Z,94296.3
2022-11-16T06:49:41.085Z,94292
2022-11-16T06:50:43.569Z,94296.3
2022-11-16T06:51:45.772Z,94296.5
2022-11-16T06:52:48.251Z,94295.4
2022-11-16T06:53:50.727Z,94294.3
2022-11-16T06:54:52.933Z,94295.2
2022-11-16T06:55:55.412Z,94296.5
2022-11-16T06:56:57.891Z,94293.5
2022-11-16T06:58:00.367Z,94293.3
2022-11-16T06:59:02.567Z,94296.9
2022-11-16T07:00:05.039Z,94293.1
2022-11-16T07:01:06.948Z,94293.6
2022-11-16T07:02:09.707Z,94294.6
2022-11-16T07:03:12.639Z,94294.1
2022-11-16T07:04:14.847Z,94294.3
2022-11-16T07:05:17.047Z,94295.2
2022-11-16T07:06:19.269Z,94293.6
2022-11-16T07:07:22.262Z,94296.9
2022-11-16T07:08:24.887Z,94301.1
2022-11-16T07:09:27.354Z,94299.3
2022-11-16T07:10:29.309Z,94299.2
2022-11-16T07:11:31.848Z,94299
2022-11-16T07:12:34.018Z,94299.4
2022-11-16T07:13:36.280Z,94297.7
2022-11-16T07:14:38.815Z,94293.6
2022-11-16T07:15:41.318Z,94294.8
2022-11-16T07:16:43.795Z,94294.1
2022-11-16T07:17:46.268Z,94290.3
2022-11-16T07:18:49.668Z,94287.6
2022-11-16T07:19:52.120Z,94289.2
2022-11-16T07:20:54.612Z,94288.2
2022-11-16T07:21:57.082Z,94291.9
2022-11-16T07:22:59.573Z,94292.9
2022-11-16T07:24:01.759Z,94291.4
2022-11-16T07:25:04.248Z,94291.8
2022-11-16T07:26:06.453Z,94291.9
2022-11-16T07:27:09.045Z,94285.7
2022-11-16T07:28:11.563Z,94289.9
2022-11-16T07:29:14.064Z,94288.7
2022-11-16T07:30:16.298Z,94289.5
2022-11-16T07:31:18.529Z,94288
2022-11-16T07:32:20.748Z,94291.8
2022-11-16T07:33:22.728Z,94294.6
2022-11-16T07:34:26.121Z,94293
2022-11-16T07:35:28.373Z,94295.9
2022-11-16T07:36:30.565Z,94296.9
2022-11-16T07:37:32.501Z,94294.5
2022-11-16T07:38:36.657Z,94298.2
2022-11-16T07:39:39.117Z,94304.2
2022-11-16T07:40:41.598Z,94300.9
2022-11-16T07:41:44.080Z,94299.1
2022-11-16T07:42:46.391Z,94301.7
2022-11-16T07:44:53.578Z,94301.7
2022-11-16T07:47:00.491Z,94305.6
2022-11-16T07:48:02.973Z,94299.5
2022-11-16T07:50:10.067Z,94303.6
2022-11-16T07:51:12.849Z,94307.3
2022-11-16T07:52:14.765Z,94306.2
2022-11-16T07:53:17.238Z,94304.9
2022-11-16T07:54:19.769Z,94297.6
2022-11-16T07:55:22.239Z,94306.1
2022-11-16T07:56:24.712Z,94306.3
2022-11-16T07:57:27.209Z,94306.9
2022-11-16T07:58:29.674Z,94304.9
2022-11-16T07:59:32.249Z,94310.9
2022-11-16T08:00:34.713Z,94312.7
2022-11-16T08:01:36.908Z,94312.3
2022-11-16T08:02:38.963Z,94315.4
2022-11-16T08:03:41.458Z,94311.4
2022-11-16T08:04:43.952Z,94314.8
2022-11-16T08:05:46.704Z,94315.7
2022-11-16T08:06:49.517Z,94317.5
2022-11-16T08:07:52.184Z,94315.9
2022-11-16T08:09:59.839Z,94319.5
2022-11-16T08:11:02.154Z,94315.6
2022-11-16T08:12:04.754Z,94314.5
2022-11-16T08:13:07.238Z,94316.8
2022-11-16T08:14:09.720Z,94322.3
2022-11-16T08:15:11.916Z,94322.2
2022-11-16T08:16:14.142Z,94319.8
2022-11-16T08:17:16.446Z,94320.2
2022-11-16T08:18:18.912Z,94318.4
2022-11-16T08:19:21.389Z,94321.9
2022-11-16T08:20:23.878Z,94323.1
2022-11-16T08:21:26.554Z,94321.7
2022-11-16T08:22:28.898Z,94326
2022-11-16T08:23:31.106Z,94325.8
2022-11-16T08:24:33.599Z,94323.9
2022-11-16T08:25:36.086Z,94328.9
2022-11-16T08:26:38.263Z,94328.4
2022-11-16T08:27:40.199Z,94324.2
2022-11-16T08:28:42.406Z,94324.6
2022-11-16T08:29:44.927Z,94328.3
2022-11-16T08:31:52.470Z,94328.8
2022-11-16T08:32:54.965Z,94329.6
2022-11-16T08:33:57.324Z,94328.1
2022-11-16T08:34:59.589Z,94326.4
2022-11-16T08:36:02.084Z,94322.1
2022-11-16T08:37:04.866Z,94328.7
2022-11-16T08:38:07.486Z,94327.5
2022-11-16T08:39:09.410Z,94327.6
2022-11-16T08:40:11.876Z,94332.6
2022-11-16T08:41:13.519Z,94331
2022-11-16T08:42:15.455Z,94329.2
2022-11-16T08:43:17.677Z,94328
2022-11-16T08:44:20.822Z,94332.6
2022-11-16T08:45:23.422Z,94332.7
2022-11-16T08:46:25.338Z,94333
2022-11-16T08:47:27.562Z,94336.9
2022-11-16T08:48:29.749Z,94333.6
2022-11-16T08:49:31.692Z,94337.9
2022-11-16T08:51:39.162Z,94337.5
2022-11-16T08:52:41.969Z,94334.6
2022-11-16T08:53:44.587Z,94333.9
2022-11-16T08:54:46.796Z,94332.3
2022-11-16T08:55:48.739Z,94337.8
2022-11-16T08:56:50.941Z,94335.6
2022-11-16T08:57:53.186Z,94332.7
2022-11-16T09:00:00.387Z,94335.1
2022-11-16T09:01:02.866Z,94333.5
2022-11-16T09:02:05.094Z,94332
2022-11-16T09:03:07.649Z,94337.5
2022-11-16T09:04:09.546Z,94335.8
2022-11-16T09:05:12.035Z,94335.9
2022-11-16T09:06:14.553Z,94338.5
2022-11-16T09:07:17.262Z,94337.4
2022-11-16T09:08:20.290Z,94337.6
2022-11-16T09:09:22.911Z,94336.3
2022-11-16T09:10:25.326Z,94339
2022-11-16T09:11:27.261Z,94342.9
2022-11-16T09:12:29.175Z,94341.6
2022-11-16T09:13:31.394Z,94341.1
2022-11-16T09:14:33.297Z,94347.3
2022-11-16T09:15:35.523Z,94347.8
2022-11-16T09:16:38.017Z,94350
2022-11-16T09:17:40.505Z,94351.1
2022-11-16T09:18:42.999Z,94347.9
2022-11-16T09:19:45.488Z,94347.2
2022-11-16T09:20:47.685Z,94349.2
2022-11-16T09:21:49.905Z,94353.1
2022-11-16T09:22:52.462Z,94353
2022-11-16T09:23:55.165Z,94351.5
2022-11-16T09:24:57.402Z,94352.4
2022-11-16T09:25:59.622Z,94354.5
2022-11-16T09:27:01.873Z,94357.4
2022-11-16T09:28:04.396Z,94355.8
2022-11-16T09:29:06.592Z,94353.8
2022-11-16T09:30:08.816Z,94358.7
2022-11-16T09:31:11.076Z,94353.7
2022-11-16T09:32:13.326Z,94358.7
2022-11-16T09:33:15.536Z,94359.7
2022-11-16T09:34:17.744Z,94356.2
2022-11-16T09:35:20.281Z,94361.6
2022-11-16T09:36:22.772Z,94357.4
2022-11-16T09:37:24.964Z,94358.6
2022-11-16T09:39:34.042Z,94355.8
2022-11-16T09:40:36.287Z,94360.7
2022-11-16T09:41:38.784Z,94354.9
2022-11-16T09:42:40.997Z,94358.3
2022-11-16T09:44:48.216Z,94360.5
2022-11-16T09:45:50.707Z,94357.2
2022-11-16T09:46:52.940Z,94358.1
2022-11-16T09:47:55.426Z,94360.5
2022-11-16T09:48:57.618Z,94360
2022-11-16T09:51:04.365Z,94359.1
2022-11-16T09:52:06.333Z,94363.7
2022-11-16T09:53:08.557Z,94362.7
2022-11-16T09:54:11.049Z,94362.3
2022-11-16T09:57:23.760Z,94366.6
2022-11-16T09:58:26.386Z,94371.3
2022-11-16T09:59:28.907Z,94370.4
2022-11-16T10:00:31.202Z,94365.2
2022-11-16T10:01:33.589Z,94368.5
2022-11-16T10:02:36.096Z,94367.3
2022-11-16T10:03:38.817Z,94363.3
2022-11-16T10:04:41.028Z,94366.3
2022-11-16T10:05:43.229Z,94366.5
2022-11-16T10:06:45.137Z,94366
2022-11-16T10:07:47.348Z,94369.6
2022-11-16T10:08:49.559Z,94369.5
2022-11-16T10:09:51.496Z,94370.6
2022-11-16T10:10:54.463Z,94369.7
2022-11-16T10:11:56.994Z,94377.8
2022-11-16T10:12:59.653Z,94368.2
2022-11-16T10:15:07.146Z,94366.5
2022-11-16T10:16:08.815Z,94364.9
2022-11-16T10:17:11.316Z,94365.3
2022-11-16T10:18:12.980Z,94364.1
2022-11-16T10:19:14.913Z,94362.6
2022-11-16T10:20:17.658Z,94363.4
2022-11-16T10:21:19.883Z,94359.6
2022-11-16T10:22:22.371Z,94361.3
2022-11-16T10:23:24.859Z,94358.9
2022-11-16T10:24:27.353Z,94357.6
2022-11-16T10:25:29.271Z,94360.1
2022-11-16T10:26:31.597Z,94365.9
2022-11-16T10:27:33.823Z,94366
2022-11-16T10:28:36.577Z,94365
2022-11-16T10:29:39.076Z,94363.8
2022-11-16T10:30:41.585Z,94367.1
2022-11-16T10:31:43.806Z,94365.9
2022-11-16T10:32:46.312Z,94362.4
2022-11-16T10:33:48.538Z,94362.6
2022-11-16T10:34:50.487Z,94358.5
2022-11-16T10:35:52.664Z,94357.8
2022-11-16T10:36:55.159Z,94356
2022-11-16T10:37:57.357Z,94356
2022-11-16T10:38:59.570Z,94353
2022-11-16T10:40:01.773Z,94353.7
2022-11-16T10:41:04.280Z,94353.4
2022-11-16T10:43:11.558Z,94354.6
2022-11-16T10:44:14.186Z,94353
2022-11-16T10:45:16.803Z,94350.7
2022-11-16T10:46:19.036Z,94352.4
2022-11-16T10:47:21.603Z,94353.7
2022-11-16T10:48:23.528Z,94352.1
2022-11-16T10:49:25.526Z,94349.2
2022-11-16T10:50:27.741Z,94357.1
2022-11-16T10:51:29.952Z,94355.5
2022-11-16T10:52:32.170Z,94349.1
2022-11-16T10:53:36.450Z,94351.7
2022-11-16T10:55:44.307Z,94351.9
2022-11-16T10:56:46.791Z,94347.9
2022-11-16T10:57:49.136Z,94346.7
2022-11-16T10:58:51.338Z,94347.7
2022-11-16T10:59:53.976Z,94341.8
2022-11-16T11:00:56.429Z,94346.9
2022-11-16T11:01:58.735Z,94346
2022-11-16T11:03:01.221Z,94347
2022-11-16T11:04:02.870Z,94343.5
2022-11-16T11:05:05.078Z,94344.2
2022-11-16T11:06:07.274Z,94341
2022-11-16T11:07:09.910Z,94338.1
2022-11-16T11:08:12.182Z,94342
2022-11-16T11:09:14.400Z,94335.4
2022-11-16T11:10:16.646Z,94338.7
2022-11-16T11:11:18.649Z,94336.9
2022-11-16T11:12:20.863Z,94332.7
2022-11-16T11:13:23.353Z,94330.8
2022-11-16T11:14:25.322Z,94329.5
2022-11-16T11:15:28.604Z,94330.3
2022-11-16T11:16:31.189Z,94331.6
2022-11-16T11:17:33.671Z,94330.6
2022-11-16T11:18:36.133Z,94330.4
2022-11-16T11:19:38.067Z,94331.9
2022-11-16T11:21:45.544Z,94334.6
2022-11-16T11:22:48.017Z,94333.8
2022-11-16T11:23:50.198Z,94335.6
2022-11-16T11:24:52.735Z,94335.5
2022-11-16T11:25:54.657Z,94335.4
2022-11-16T11:26:57.131Z,94330
2022-11-16T11:27:59.354Z,94327.4
2022-11-16T11:29:01.902Z,94334.3
2022-11-16T11:30:03.893Z,94329.6
2022-11-16T11:31:06.522Z,94329.6
2022-11-16T11:32:09.111Z,94329.7
2022-11-16T11:33:11.605Z,94331.1
2022-11-16T11:34:14.092Z,94334.2
2022-11-16T11:35:16.044Z,94334.7
2022-11-16T11:36:17.965Z,94331.9
2022-11-16T11:37:19.965Z,94328.2
2022-11-16T11:38:22.174Z,94333.9
2022-11-16T11:39:24.612Z,94330.1
2022-11-16T11:40:26.657Z,94333
2022-11-16T11:41:28.576Z,94334.1
2022-11-16T11:42:30.817Z,94336.1
2022-11-16T11:43:34.877Z,94337.1
2022-11-16T11:44:38.195Z,94335.6
2022-11-16T11:45:40.395Z,94336.6
2022-11-16T11:48:53.053Z,94333.3
2022-11-16T11:49:55.087Z,94330.8
2022-11-16T11:50:57.572Z,94339.5
2022-11-16T11:51:59.792Z,94338.7
2022-11-16T11:53:01.717Z,94336.8
2022-11-16T11:54:04.208Z,94340
2022-11-16T11:55:06.408Z,94342
2022-11-16T11:56:08.624Z,94335.4
2022-11-16T11:57:11.104Z,94336.8
2022-11-16T11:58:13.635Z,94340.4
2022-11-16T11:59:16.117Z,94334.5
2022-11-16T12:00:18.630Z,94337.8
2022-11-16T12:02:25.830Z,94335.8
2022-11-16T12:03:27.775Z,94336.1
2022-11-16T12:04:30.421Z,94335.8
2022-11-16T12:05:32.942Z,94337.8
2022-11-16T12:06:34.633Z,94338.8
2022-11-16T12:07:41.793Z,94339.9
2022-11-16T12:08:44.003Z,94340.5
2022-11-16T12:09:46.219Z,94336.1
2022-11-16T12:10:48.161Z,94339.9
2022-11-16T12:11:50.381Z,94338.7
2022-11-16T12:12:52.864Z,94337.7
2022-11-16T12:13:55.149Z,94335.5
2022-11-16T12:14:57.090Z,94329.8
2022-11-16T12:15:59.443Z,94328.2
2022-11-16T12:17:01.939Z,94331.4
2022-11-16T12:18:04.443Z,94334.9
2022-11-16T12:19:06.669Z,94334.4
2022-11-16T12:20:09.409Z,94334
2022-11-16T12:21:11.922Z,94332.3
2022-11-16T12:22:14.143Z,94327.7
2022-11-16T12:23:16.403Z,94329.2
2022-11-16T12:24:18.609Z,94329.2
2022-11-16T12:25:20.264Z,94323.6
2022-11-16T12:26:22.194Z,94324.5
2022-11-16T12:27:24.580Z,94324
2022-11-16T12:28:27.084Z,94324
2022-11-16T12:29:29.571Z,94319.6
2022-11-16T12:30:32.044Z,94319.7
2022-11-16T12:31:34.693Z,94321.6
2022-11-16T12:32:37.214Z,94320.1
2022-11-16T12:33:40.335Z,94318.8
2022-11-16T12:34:42.833Z,94318.5
2022-11-16T12:35:45.604Z,94320.4
2022-11-16T12:36:48.125Z,94320.4
2022-11-16T12:37:50.343Z,94321.7
2022-11-16T12:38:52.828Z,94321.5
2022-11-16T12:39:55.298Z,94324.7
2022-11-16T12:40:57.779Z,94325.9
2022-11-16T12:42:00.267Z,94330.8
2022-11-16T12:43:02.778Z,94323.9
2022-11-16T12:44:05.274Z,94320.9
2022-11-16T12:45:07.493Z,94323.7
2022-11-16T12:46:10.003Z,94324.3
2022-11-16T12:47:12.225Z,94326
2022-11-16T12:48:14.549Z,94325.8
2022-11-16T12:49:17.027Z,94321.4
2022-11-16T12:50:19.232Z,94322
2022-11-16T12:51:21.711Z,94318.8
2022-11-16T12:52:28.373Z,94318.7
2022-11-16T12:53:31.123Z,94313.8
2022-11-16T12:54:34.240Z,94313.9
2022-11-16T12:55:36.449Z,94309.9
2022-11-16T12:56:38.960Z,94309
2022-11-16T12:57:43.201Z,94309.3
2022-11-16T12:58:45.696Z,94304.9
2022-11-16T12:59:47.929Z,94304.3
2022-11-16T13:00:50.748Z,94304.8
2022-11-16T13:02:58.447Z,94304.1
2022-11-16T13:04:00.359Z,94303.7
2022-11-16T13:05:02.569Z,94297.3